createdAt,value
2018-10-04T00:00:57.254Z,3.50
2018-10-04T00:03:26.102Z,3.50
2018-10-04T00:05:54.857Z,3.50
2018-10-04T00:08:23.570Z,3.50
2018-10-04T00:10:53.282Z,3.50
2018-10-04T00:13:22.081Z,3.50
2018-10-04T00:15:51.202Z,3.50
2018-10-04T00:18:20.022Z,3.40
2018-10-04T00:20:48.765Z,3.40
2018-10-04T00:23:17.566Z,3.40
2018-10-04T00:25:46.438Z,3.40
2018-10-04T00:28:15.378Z,3.40
2018-10-04T00:30:51.184Z,3.40
2018-10-04T00:33:20.122Z,3.30
2018-10-04T00:35:48.868Z,3.30
2018-10-04T00:38:17.778Z,3.30
2018-10-04T00:40:46.619Z,3.20
2018-10-04T00:43:15.775Z,3.20
2018-10-04T00:45:44.687Z,3.20
2018-10-04T00:48:13.382Z,3.30
2018-10-04T00:50:42.054Z,3.20
2018-10-04T00:53:10.762Z,3.30
2018-10-04T00:55:39.347Z,3.20
2018-10-04T00:58:08.025Z,3.10
2018-10-04T01:00:37.088Z,3.10
2018-10-04T01:03:05.919Z,3.20
2018-10-04T01:05:34.622Z,3.20
2018-10-04T01:08:03.390Z,3.10
2018-10-04T01:10:32.075Z,3.10
2018-10-04T01:13:00.789Z,3.10
2018-10-04T01:15:29.562Z,3.10
2018-10-04T01:18:09.662Z,3.00
2018-10-04T01:20:38.358Z,3.00
2018-10-04T01:23:07.393Z,3.00
2018-10-04T01:25:36.157Z,2.80
2018-10-04T01:28:19.430Z,2.90
2018-10-04T01:30:48.386Z,2.90
2018-10-04T01:33:17.278Z,2.90
2018-10-04T01:35:46.010Z,2.90
2018-10-04T01:38:14.875Z,2.90
2018-10-04T01:40:43.522Z,2.80
2018-10-04T01:43:12.211Z,2.70
2018-10-04T01:45:41.023Z,2.70
2018-10-04T01:48:09.825Z,2.60
2018-10-04T01:50:38.655Z,2.50
2018-10-04T01:53:07.454Z,2.50
2018-10-04T01:55:36.110Z,2.60
2018-10-04T01:58:04.806Z,2.60
2018-10-04T02:00:33.705Z,2.60
2018-10-04T02:03:02.337Z,2.70
2018-10-04T02:05:30.987Z,2.70
2018-10-04T02:07:59.805Z,2.70
2018-10-04T02:10:28.622Z,2.70
2018-10-04T02:12:57.951Z,2.60
2018-10-04T02:15:26.670Z,2.60
2018-10-04T02:17:55.354Z,2.60
2018-10-04T02:20:24.055Z,2.60
2018-10-04T02:22:53.214Z,2.50
2018-10-04T02:25:22.046Z,2.50
2018-10-04T02:27:50.795Z,2.50
2018-10-04T02:30:20.190Z,2.50
2018-10-04T02:32:48.808Z,2.40
2018-10-04T02:35:17.643Z,2.40
2018-10-04T02:37:46.965Z,2.50
2018-10-04T02:40:15.602Z,2.50
2018-10-04T02:42:44.302Z,2.40
2018-10-04T02:45:13.022Z,2.40
2018-10-04T02:47:41.730Z,2.40
2018-10-04T02:50:10.424Z,2.30
2018-10-04T02:52:39.694Z,2.30
2018-10-04T02:55:13.585Z,2.30
2018-10-04T02:57:42.452Z,2.30
2018-10-04T03:00:11.104Z,2.30
2018-10-04T03:02:39.839Z,2.30
2018-10-04T03:05:08.610Z,2.20
2018-10-04T03:07:37.333Z,2.10
2018-10-04T03:10:06.157Z,2.10
2018-10-04T03:12:35.282Z,2.00
2018-10-04T03:15:04.066Z,2.00
2018-10-04T03:17:32.903Z,2.10
2018-10-04T03:20:02.012Z,2.10
2018-10-04T03:22:30.739Z,2.20
2018-10-04T03:24:59.577Z,2.20
2018-10-04T03:27:28.282Z,2.20
2018-10-04T03:29:57.012Z,2.20
2018-10-04T03:32:26.016Z,2.20
2018-10-04T03:34:54.841Z,2.30
2018-10-04T03:37:23.564Z,2.30
2018-10-04T03:39:52.230Z,2.30
2018-10-04T03:42:21.323Z,2.30
2018-10-04T03:44:50.038Z,2.30
2018-10-04T03:47:18.778Z,2.20
2018-10-04T03:49:47.456Z,2.10
2018-10-04T03:52:16.102Z,2.10
2018-10-04T03:54:44.745Z,2.10
2018-10-04T03:57:13.802Z,2.10
2018-10-04T03:59:42.638Z,2.20
2018-10-04T04:02:11.346Z,2.10
2018-10-04T04:04:40.172Z,2.10
2018-10-04T04:07:08.802Z,2.20
2018-10-04T04:09:37.426Z,2.10
2018-10-04T04:12:06.305Z,1.90
2018-10-04T04:14:36.139Z,1.80
2018-10-04T04:17:05.209Z,1.90
2018-10-04T04:19:34.025Z,1.90
2018-10-04T04:22:02.753Z,1.90
2018-10-04T04:24:31.438Z,1.80
2018-10-04T04:27:00.290Z,1.90
2018-10-04T04:29:28.854Z,1.90
2018-10-04T04:31:57.573Z,1.90
2018-10-04T04:34:26.346Z,1.90
2018-10-04T04:36:55.030Z,1.80
2018-10-04T04:39:23.598Z,1.90
2018-10-04T04:41:52.220Z,1.80
2018-10-04T04:44:20.863Z,1.80
2018-10-04T04:46:49.788Z,1.90
2018-10-04T04:49:18.314Z,1.90
2018-10-04T04:51:47.134Z,1.90
2018-10-04T04:54:29.579Z,1.90
2018-10-04T04:56:58.238Z,2.00
2018-10-04T04:59:26.925Z,2.00
2018-10-04T05:01:55.793Z,1.90
2018-10-04T05:04:24.394Z,1.80
2018-10-04T05:06:53.144Z,1.80
2018-10-04T05:09:21.965Z,1.80
2018-10-04T05:11:50.861Z,1.90
2018-10-04T05:14:19.564Z,1.90
2018-10-04T05:16:48.370Z,1.90
2018-10-04T05:19:17.278Z,2.10
2018-10-04T05:21:45.910Z,2.20
2018-10-04T05:24:14.780Z,2.30
2018-10-04T05:26:43.431Z,2.40
2018-10-04T05:29:12.139Z,2.50
2018-10-04T05:31:41.074Z,2.60
2018-10-04T05:34:10.035Z,2.70
2018-10-04T05:36:39.341Z,2.80
2018-10-04T05:39:08.526Z,2.90
2018-10-04T05:41:37.130Z,3.00
2018-10-04T05:44:05.742Z,3.00
2018-10-04T05:46:34.619Z,3.10
2018-10-04T05:49:03.366Z,3.20
2018-10-04T05:51:32.570Z,3.30
2018-10-04T05:54:01.443Z,3.40
2018-10-04T05:56:30.190Z,3.50
2018-10-04T05:58:58.814Z,3.50
2018-10-04T06:01:27.678Z,3.60
2018-10-04T06:03:56.339Z,3.70
2018-10-04T06:06:24.922Z,3.80
2018-10-04T06:08:53.622Z,3.80
2018-10-04T06:11:22.286Z,3.90
2018-10-04T06:13:50.888Z,4.00
2018-10-04T06:16:19.692Z,4.00
2018-10-04T06:18:48.417Z,4.10
2018-10-04T06:21:17.094Z,4.10
2018-10-04T06:23:46.289Z,4.20
2018-10-04T06:26:14.946Z,4.20
2018-10-04T06:28:43.646Z,4.30
2018-10-04T06:31:12.848Z,4.30
2018-10-04T06:33:41.456Z,4.40
2018-10-04T06:36:10.727Z,4.30
2018-10-04T06:38:40.050Z,4.50
2018-10-04T06:41:08.701Z,4.60
2018-10-04T06:43:37.347Z,4.60
2018-10-04T06:46:06.122Z,4.60
2018-10-04T06:48:34.795Z,4.60
2018-10-04T06:51:03.482Z,4.60
2018-10-04T06:53:32.394Z,4.70
2018-10-04T06:56:01.178Z,4.80
2018-10-04T06:58:29.826Z,4.90
2018-10-04T07:00:58.531Z,5.00
2018-10-04T07:03:27.234Z,4.90
2018-10-04T07:05:57.961Z,4.90
2018-10-04T07:08:26.925Z,5.10
2018-10-04T07:10:55.582Z,5.20
2018-10-04T07:13:24.362Z,5.30
2018-10-04T07:15:53.480Z,5.40
2018-10-04T07:18:22.198Z,5.50
2018-10-04T07:20:51.046Z,5.70
2018-10-04T07:23:19.896Z,5.70
2018-10-04T07:25:48.654Z,5.80
2018-10-04T07:28:20.071Z,5.80
2018-10-04T07:30:49.155Z,5.80
2018-10-04T07:33:17.818Z,5.80
2018-10-04T07:35:46.497Z,5.90
2018-10-04T07:38:15.698Z,5.80
2018-10-04T07:40:44.515Z,5.90
2018-10-04T07:43:13.537Z,5.80
2018-10-04T07:45:42.392Z,5.80
2018-10-04T07:48:11.289Z,5.90
2018-10-04T07:50:39.951Z,6.00
2018-10-04T07:53:09.095Z,6.10
2018-10-04T07:55:37.822Z,6.20
2018-10-04T07:58:06.626Z,6.20
2018-10-04T08:00:35.569Z,6.20
2018-10-04T08:03:04.178Z,6.30
2018-10-04T08:05:32.973Z,6.40
2018-10-04T08:08:01.794Z,6.50
2018-10-04T08:10:30.422Z,6.60
2018-10-04T08:12:59.082Z,6.80
2018-10-04T08:15:27.827Z,6.90
2018-10-04T08:17:56.466Z,7.00
2018-10-04T08:20:25.277Z,7.20
2018-10-04T08:22:54.318Z,7.30
2018-10-04T08:25:22.978Z,7.50
2018-10-04T08:27:51.774Z,7.60
2018-10-04T08:30:20.785Z,7.90
2018-10-04T08:32:49.486Z,8.00
2018-10-04T08:35:18.589Z,8.20
2018-10-04T08:37:47.171Z,8.30
2018-10-04T08:40:16.229Z,8.40
2018-10-04T08:42:45.113Z,8.50
2018-10-04T08:45:13.965Z,8.60
2018-10-04T08:47:42.717Z,8.60
2018-10-04T08:50:11.446Z,8.80
2018-10-04T08:52:45.331Z,8.90
2018-10-04T08:55:48.587Z,9.10
2018-10-04T08:58:17.775Z,9.20
2018-10-04T09:00:46.518Z,9.40
2018-10-04T09:03:18.825Z,9.60
2018-10-04T09:05:48.213Z,9.70
2018-10-04T09:08:17.155Z,9.90
2018-10-04T09:10:46.380Z,10.00
2018-10-04T09:13:15.130Z,10.10
2018-10-04T09:15:43.834Z,10.30
2018-10-04T09:18:12.554Z,10.50
2018-10-04T09:20:41.254Z,10.50
2018-10-04T09:23:09.970Z,10.60
2018-10-04T09:25:38.721Z,10.80
2018-10-04T09:28:11.974Z,11.00
2018-10-04T09:31:52.020Z,11.10
2018-10-04T09:34:21.348Z,11.30
2018-10-04T09:36:50.121Z,11.60
2018-10-04T09:39:19.920Z,11.80
2018-10-04T09:41:49.122Z,12.10
2018-10-04T09:44:18.643Z,12.30
2018-10-04T09:46:47.342Z,12.50
2018-10-04T09:49:16.148Z,12.70
2018-10-04T09:51:50.094Z,12.80
2018-10-04T09:54:24.150Z,13.00
2018-10-04T09:56:53.235Z,13.10
2018-10-04T09:59:23.030Z,13.30
2018-10-04T10:01:57.136Z,13.50
2018-10-04T10:04:26.209Z,13.60
2018-10-04T10:06:55.128Z,13.70
2018-10-04T10:09:24.110Z,13.60
2018-10-04T10:11:53.283Z,13.60
2018-10-04T10:14:23.026Z,13.40
2018-10-04T10:16:51.807Z,13.50
2018-10-04T10:19:20.698Z,13.60
2018-10-04T10:21:49.730Z,13.70
2018-10-04T10:24:18.715Z,13.80
2018-10-04T10:26:47.907Z,13.70
2018-10-04T10:29:16.702Z,13.60
2018-10-04T10:31:45.591Z,13.70
2018-10-04T10:34:14.786Z,13.70
2018-10-04T10:36:43.643Z,13.60
2018-10-04T10:39:12.707Z,13.70
2018-10-04T10:41:41.592Z,13.80
2018-10-04T10:44:10.617Z,13.80
2018-10-04T10:46:40.014Z,13.90
2018-10-04T10:49:09.494Z,13.90
2018-10-04T10:51:38.448Z,13.90
2018-10-04T10:54:07.336Z,13.90
2018-10-04T10:56:36.389Z,13.70
2018-10-04T10:59:05.170Z,13.60
2018-10-04T11:01:33.910Z,13.70
2018-10-04T11:04:03.061Z,13.60
2018-10-04T11:06:32.238Z,13.60
2018-10-04T11:09:01.206Z,13.50
2018-10-04T11:11:30.141Z,13.40
2018-10-04T11:13:58.807Z,13.40
2018-10-04T11:16:27.794Z,13.40
2018-10-04T11:18:56.584Z,13.40
2018-10-04T11:21:25.671Z,13.40
2018-10-04T11:24:09.352Z,13.60
2018-10-04T11:26:38.238Z,13.60
2018-10-04T11:29:07.026Z,13.80
2018-10-04T11:31:36.151Z,13.70
2018-10-04T11:34:05.094Z,13.60
2018-10-04T11:36:34.343Z,13.50
2018-10-04T11:39:03.422Z,13.50
2018-10-04T11:41:32.282Z,13.30
2018-10-04T11:44:05.554Z,13.40
2018-10-04T11:46:34.578Z,13.20
2018-10-04T11:49:03.562Z,13.10
2018-10-04T11:51:32.514Z,13.10
2018-10-04T11:54:01.511Z,13.10
2018-10-04T11:56:30.401Z,13.10
2018-10-04T11:58:59.251Z,13.00
2018-10-04T12:01:28.343Z,12.90
2018-10-04T12:03:57.101Z,12.60
2018-10-04T12:06:25.951Z,12.40
2018-10-04T12:08:54.919Z,12.20
2018-10-04T12:11:23.901Z,12.10
2018-10-04T12:13:52.830Z,12.00
2018-10-04T12:16:21.687Z,12.00
2018-10-04T12:18:50.506Z,12.00
2018-10-04T12:21:19.281Z,12.10
2018-10-04T12:23:49.270Z,12.10
2018-10-04T12:26:18.030Z,12.10
2018-10-04T12:28:46.858Z,12.20
2018-10-04T12:31:15.896Z,12.30
2018-10-04T12:33:44.631Z,12.30
2018-10-04T12:36:13.346Z,12.30
2018-10-04T12:38:42.094Z,12.20
2018-10-04T12:41:10.802Z,12.10
2018-10-04T12:43:39.483Z,12.10
2018-10-04T12:46:08.599Z,12.10
2018-10-04T12:48:37.265Z,12.10
2018-10-04T12:51:06.158Z,12.10
2018-10-04T12:53:34.882Z,12.10
2018-10-04T12:56:03.902Z,12.10
2018-10-04T12:58:32.974Z,12.10
2018-10-04T13:01:01.921Z,12.10
2018-10-04T13:03:31.114Z,12.10
2018-10-04T13:05:59.719Z,12.00
2018-10-04T13:08:28.549Z,12.00
2018-10-04T13:10:57.254Z,12.00
2018-10-04T13:13:25.971Z,12.10
2018-10-04T13:15:54.951Z,12.10
2018-10-04T13:18:23.758Z,12.10
2018-10-04T13:20:52.585Z,12.10
2018-10-04T13:23:21.594Z,12.10
2018-10-04T13:25:50.202Z,12.10
2018-10-04T13:28:19.095Z,12.10
2018-10-04T13:30:48.351Z,12.10
2018-10-04T13:33:17.574Z,12.10
2018-10-04T13:35:46.338Z,12.10
2018-10-04T13:38:15.119Z,12.10
2018-10-04T13:40:43.860Z,12.20
2018-10-04T13:43:12.702Z,12.20
2018-10-04T13:45:41.386Z,12.20
2018-10-04T13:48:10.094Z,12.20
2018-10-04T13:50:38.917Z,12.20
2018-10-04T13:53:07.861Z,12.20
2018-10-04T13:55:36.594Z,12.20
2018-10-04T13:58:05.687Z,12.20
2018-10-04T14:00:35.005Z,12.20
2018-10-04T14:03:03.624Z,12.20
2018-10-04T14:05:32.372Z,12.30
2018-10-04T14:08:01.745Z,12.30
2018-10-04T14:10:30.510Z,12.30
2018-10-04T14:12:59.319Z,12.40
2018-10-04T14:15:28.176Z,12.40
2018-10-04T14:17:56.874Z,12.50
2018-10-04T14:20:25.927Z,12.50
2018-10-04T14:22:55.037Z,12.50
2018-10-04T14:25:24.050Z,12.50
2018-10-04T14:27:52.953Z,12.50
2018-10-04T14:30:21.988Z,12.60
2018-10-04T14:32:50.823Z,12.70
2018-10-04T14:35:19.598Z,12.70
2018-10-04T14:37:48.438Z,12.70
2018-10-04T14:40:17.194Z,12.80
2018-10-04T14:42:45.894Z,12.80
2018-10-04T14:45:14.817Z,12.80
2018-10-04T14:47:43.543Z,12.80
2018-10-04T14:50:12.701Z,12.80
2018-10-04T14:52:41.514Z,12.80
2018-10-04T14:55:10.260Z,12.90
2018-10-04T14:57:39.110Z,12.90
2018-10-04T15:00:08.597Z,12.90
2018-10-04T15:02:38.006Z,12.90
2018-10-04T15:05:06.981Z,12.90
2018-10-04T15:07:35.776Z,12.90
2018-10-04T15:10:04.779Z,12.90
2018-10-04T15:12:34.318Z,12.90
2018-10-04T15:15:03.191Z,12.90
2018-10-04T15:17:32.322Z,12.90
2018-10-04T15:20:01.093Z,12.90
2018-10-04T15:22:30.538Z,12.90
2018-10-04T15:24:59.423Z,13.00
2018-10-04T15:27:28.479Z,13.00
2018-10-04T15:29:57.681Z,13.00
2018-10-04T15:32:26.523Z,13.00
2018-10-04T15:34:56.438Z,13.00
2018-10-04T15:37:25.389Z,13.10
2018-10-04T15:39:54.217Z,13.10
2018-10-04T15:42:23.173Z,13.10
2018-10-04T15:44:52.171Z,13.10
2018-10-04T15:50:01.313Z,13.20
2018-10-04T15:52:30.477Z,13.20
2018-10-04T15:54:59.886Z,13.20
2018-10-04T15:57:28.805Z,13.20
2018-10-04T15:59:58.358Z,13.30
2018-10-04T16:02:29.012Z,13.30
2018-10-04T16:04:57.905Z,13.30
2018-10-04T16:07:28.044Z,13.30
2018-10-04T16:09:58.620Z,13.30
2018-10-04T16:12:27.990Z,13.30
2018-10-04T16:14:57.491Z,13.30
2018-10-04T16:17:27.132Z,13.30
2018-10-04T16:19:56.742Z,13.30
2018-10-04T16:22:26.095Z,13.30
2018-10-04T16:24:55.726Z,13.30
2018-10-04T16:27:30.501Z,13.30
2018-10-04T16:29:59.963Z,13.40
2018-10-04T16:32:29.000Z,13.40
2018-10-04T16:34:58.188Z,13.30
2018-10-04T16:37:29.541Z,13.40
2018-10-04T16:39:59.336Z,13.30
2018-10-04T16:42:29.211Z,13.40
2018-10-04T16:44:58.193Z,13.40
2018-10-04T16:47:27.979Z,13.40
2018-10-04T16:49:57.308Z,13.40
2018-10-04T16:55:06.253Z,13.40
2018-10-04T16:57:35.114Z,13.40
2018-10-04T17:00:04.206Z,13.40
2018-10-04T17:02:33.265Z,13.40
2018-10-04T17:05:01.979Z,13.30
2018-10-04T17:07:31.162Z,13.40
2018-10-04T17:10:00.042Z,13.40
2018-10-04T17:12:29.235Z,13.40
2018-10-04T17:14:58.262Z,13.40
2018-10-04T17:17:30.843Z,13.40
2018-10-04T17:20:00.646Z,13.30
2018-10-04T17:22:29.490Z,13.40
2018-10-04T17:24:58.362Z,13.40
2018-10-04T17:27:27.462Z,13.40
2018-10-04T17:29:56.214Z,13.40
2018-10-04T17:32:25.406Z,13.40
2018-10-04T17:34:54.191Z,13.30
2018-10-04T17:37:23.063Z,13.30
2018-10-04T17:39:52.290Z,13.30
2018-10-04T17:42:21.182Z,13.30
2018-10-04T17:44:50.126Z,13.30
2018-10-04T17:47:19.239Z,13.30
2018-10-04T17:49:48.351Z,13.30
2018-10-04T17:52:17.134Z,13.30
2018-10-04T17:54:47.246Z,13.30
2018-10-04T17:57:15.986Z,13.30
2018-10-04T17:59:45.141Z,13.30
2018-10-04T18:02:14.334Z,13.30
2018-10-04T18:04:43.185Z,13.30
2018-10-04T18:07:13.657Z,13.40
2018-10-04T18:09:42.604Z,13.40
2018-10-04T18:12:11.476Z,13.40
2018-10-04T18:14:40.349Z,13.40
2018-10-04T18:17:09.730Z,13.40
2018-10-04T18:19:38.479Z,13.40
2018-10-04T18:22:07.466Z,13.40
2018-10-04T18:24:36.287Z,13.40
2018-10-04T18:27:04.995Z,13.40
2018-10-04T18:29:33.907Z,13.40
2018-10-04T18:32:03.006Z,13.40
2018-10-04T18:34:32.731Z,13.40
2018-10-04T18:37:01.638Z,13.40
2018-10-04T18:39:30.723Z,13.40
2018-10-04T18:41:59.927Z,13.40
2018-10-04T18:44:29.773Z,13.40
2018-10-04T18:46:58.654Z,13.40
2018-10-04T18:49:27.498Z,13.40
2018-10-04T18:51:56.530Z,13.40
2018-10-04T18:54:25.844Z,13.40
2018-10-04T18:56:54.629Z,13.40
2018-10-04T18:59:23.825Z,13.40
2018-10-04T19:01:52.658Z,13.40
2018-10-04T19:04:21.652Z,13.40
2018-10-04T19:06:51.627Z,13.40
2018-10-04T19:09:20.618Z,13.40
2018-10-04T19:11:50.388Z,13.40
2018-10-04T19:14:19.358Z,13.40
2018-10-04T19:16:49.626Z,13.40
2018-10-04T19:19:18.536Z,13.40
2018-10-04T19:21:49.375Z,13.40
2018-10-04T19:24:18.404Z,13.40
2018-10-04T19:26:47.506Z,13.40
2018-10-04T19:29:16.492Z,13.40
2018-10-04T19:31:46.362Z,13.40
2018-10-04T19:34:15.314Z,13.30
2018-10-04T19:36:44.063Z,13.40
2018-10-04T19:39:13.197Z,13.30
2018-10-04T19:41:44.995Z,13.40
2018-10-04T19:44:14.197Z,13.40
2018-10-04T19:46:43.432Z,13.40
2018-10-04T19:49:25.084Z,13.40
2018-10-04T19:51:54.873Z,13.40
2018-10-04T19:54:24.664Z,13.40
2018-10-04T19:56:54.795Z,13.30
2018-10-04T19:59:24.000Z,13.40
2018-10-04T20:01:53.322Z,13.40
2018-10-04T20:04:22.676Z,13.40
2018-10-04T20:06:52.754Z,13.40
2018-10-04T20:09:22.018Z,13.40
2018-10-04T20:11:51.722Z,13.40
2018-10-04T20:14:20.729Z,13.40
2018-10-04T20:16:49.862Z,13.40
2018-10-04T20:19:19.891Z,13.40
2018-10-04T20:21:49.175Z,13.40
2018-10-04T20:24:18.079Z,13.40
2018-10-04T20:26:48.034Z,13.40
2018-10-04T20:29:18.527Z,13.40
2018-10-04T20:31:47.374Z,13.40
2018-10-04T20:34:16.456Z,13.40
2018-10-04T20:36:45.406Z,13.40
2018-10-04T20:41:54.352Z,13.40
2018-10-04T20:44:23.524Z,13.50
2018-10-04T20:46:53.298Z,13.50
2018-10-04T20:49:22.673Z,13.50
2018-10-04T20:51:51.999Z,13.50
2018-10-04T20:54:21.418Z,13.50
2018-10-04T20:56:50.832Z,13.50
2018-10-04T20:59:20.016Z,13.50
2018-10-04T21:01:49.231Z,13.50
2018-10-04T21:04:18.487Z,13.50
2018-10-04T21:06:47.645Z,13.50
2018-10-04T21:09:16.594Z,13.50
2018-10-04T21:11:46.002Z,13.50
2018-10-04T21:14:14.881Z,13.50
2018-10-04T21:16:43.982Z,13.50
2018-10-04T21:19:12.970Z,13.50
2018-10-04T21:24:21.798Z,13.50
2018-10-04T21:26:51.453Z,13.50
2018-10-04T21:32:00.310Z,13.50
2018-10-04T21:34:29.258Z,13.50
2018-10-04T21:36:58.845Z,13.50
2018-10-04T21:39:27.968Z,13.50
2018-10-04T21:41:57.849Z,13.50
2018-10-04T21:44:26.635Z,13.50
2018-10-04T21:46:57.456Z,13.60
2018-10-04T21:49:27.447Z,13.60
2018-10-04T21:51:57.575Z,13.60
2018-10-04T21:54:26.780Z,13.60
2018-10-04T21:56:57.861Z,13.50
2018-10-04T21:59:26.894Z,13.50
2018-10-04T22:01:57.906Z,13.50
2018-10-04T22:04:27.671Z,13.50
2018-10-04T22:06:57.559Z,13.50
2018-10-04T22:09:26.966Z,13.50
2018-10-04T22:11:56.747Z,13.50
2018-10-04T22:14:25.749Z,13.50
2018-10-04T22:16:55.765Z,13.50
2018-10-04T22:19:24.734Z,13.50
2018-10-04T22:24:33.359Z,13.50
2018-10-04T22:27:02.332Z,13.50
2018-10-04T22:29:31.496Z,13.50
2018-10-04T22:32:00.699Z,13.50
2018-10-04T22:34:30.627Z,13.50
2018-10-04T22:37:00.622Z,13.50
2018-10-04T22:39:30.672Z,13.50
2018-10-04T22:42:01.312Z,13.50
2018-10-04T22:44:30.513Z,13.50
2018-10-04T22:47:00.684Z,13.50
2018-10-04T22:49:29.629Z,13.50
2018-10-04T22:52:01.501Z,13.50
2018-10-04T22:54:31.710Z,13.50
2018-10-04T22:57:00.997Z,13.50
2018-10-04T22:59:30.398Z,13.50
2018-10-04T23:02:00.466Z,13.50
2018-10-04T23:04:29.766Z,13.50
2018-10-04T23:07:01.919Z,13.50
2018-10-04T23:09:30.682Z,13.50
2018-10-04T23:12:00.212Z,13.50
2018-10-04T23:17:09.995Z,13.50
2018-10-04T23:19:38.887Z,13.50
2018-10-04T23:22:07.724Z,13.60
2018-10-04T23:24:36.895Z,13.60
2018-10-04T23:27:05.969Z,13.60
2018-10-04T23:29:34.912Z,13.60
2018-10-04T23:32:05.238Z,13.60
2018-10-04T23:34:35.206Z,13.60
2018-10-04T23:37:04.219Z,13.60
2018-10-04T23:39:33.222Z,13.60
2018-10-04T23:42:02.951Z,13.70
2018-10-04T23:44:32.212Z,13.60
2018-10-04T23:47:03.492Z,13.60
2018-10-04T23:49:32.806Z,13.60
2018-10-04T23:52:06.030Z,13.60
2018-10-04T23:54:35.263Z,13.60
2018-10-04T23:57:04.837Z,13.60
2018-10-04T23:59:34.835Z,13.60
